Time;durP1;ratioP1;P1;durP2;ratioP2;P2;SDS_P1;SDS_P2;PMS_P1;PMS_P2;Temp;Humidity;BMP_temperature;BMP_pressure;BME280_temperature;BME280_humidity;BME280_pressure;Samples;Min_cycle;Max_cycle;Signal;HPM_P1;HPM_P2
2021/07/01 00:01:27;;;;;;;4.55;2.75;;;;;;;14.15;83.93;99679.44;2220630;40;20030;-80
2021/07/01 00:03:00;;;;;;;4.57;2.75;;;;;;;14.17;83.95;99673.88;2218501;40;20037;-80
2021/07/01 00:04:35;;;;;;;5.15;3.00;;;;;;;14.18;83.68;99668.31;2220117;40;20081;-82
2021/07/01 00:06:07;;;;;;;5.05;2.88;;;;;;;14.19;83.64;99669.19;2219998;40;20057;-80
2021/07/01 00:07:39;;;;;;;6.85;3.47;;;;;;;14.16;83.65;99670.38;2205320;40;20062;-80
2021/07/01 00:09:14;;;;;;;4.88;2.97;;;;;;;14.24;83.74;99668.63;2225961;40;20460;-81
2021/07/01 00:10:46;;;;;;;5.05;3.35;;;;;;;14.26;83.78;99667.44;2226914;40;20036;-82
2021/07/01 00:12:18;;;;;;;6.60;3.05;;;;;;;14.28;83.55;99669.94;2227164;40;20037;-81
2021/07/01 00:13:52;;;;;;;5.57;2.95;;;;;;;14.30;83.48;99671.47;2226126;40;20118;-81
2021/07/01 00:15:29;;;;;;;4.60;2.90;;;;;;;14.34;83.39;99671.94;2225800;40;20040;-81
2021/07/01 00:17:07;;;;;;;4.88;3.50;;;;;;;14.37;82.83;99670.72;2219697;40;20036;-81
2021/07/01 00:18:39;;;;;;;5.80;3.30;;;;;;;14.40;82.78;99670.38;2224575;40;20029;-82
2021/07/01 00:20:12;;;;;;;6.85;3.17;;;;;;;14.40;82.69;99676.59;2221580;40;20037;-81
2021/07/01 00:21:44;;;;;;;7.28;3.30;;;;;;;14.41;82.45;99675.56;2223148;40;20514;-79
2021/07/01 00:23:16;;;;;;;8.07;3.53;;;;;;;14.41;82.36;99672.88;2221332;40;20268;-80
2021/07/01 00:24:48;;;;;;;5.53;3.05;;;;;;;14.39;81.65;99669.53;2219604;40;20436;-81
2021/07/01 00:26:18;;;;;;;5.10;3.65;;;;;;;14.39;81.85;99679.47;2227519;40;20025;-82
2021/07/01 00:27:53;;;;;;;5.30;3.13;;;;;;;14.43;81.75;99676.25;2226865;40;20044;-81
2021/07/01 00:29:26;;;;;;;4.40;2.70;;;;;;;14.42;81.60;99671.88;2223103;40;20033;-80
2021/07/01 00:30:57;;;;;;;6.40;3.50;;;;;;;14.45;81.54;99671.50;2223291;40;20029;-81
2021/07/01 00:32:30;;;;;;;5.45;3.40;;;;;;;14.48;81.54;99681.09;2228244;40;20048;-84
2021/07/01 00:34:02;;;;;;;4.75;3.15;;;;;;;14.47;81.63;99674.84;2224488;40;20037;-80
2021/07/01 00:35:34;;;;;;;4.75;2.83;;;;;;;14.51;81.14;99684.25;2226403;40;20014;-83
2021/07/01 00:37:06;;;;;;;5.97;3.13;;;;;;;14.59;81.08;99691.44;2226623;40;20044;-80
2021/07/01 00:38:37;;;;;;;5.38;2.92;;;;;;;14.63;80.95;99676.59;2226138;40;20052;-80
2021/07/01 00:40:11;;;;;;;4.90;3.05;;;;;;;14.64;80.98;99685.50;2225613;40;20044;-81
2021/07/01 00:41:43;;;;;;;4.93;2.90;;;;;;;14.62;80.86;99690.22;2211955;40;20037;-80
2021/07/01 00:43:15;;;;;;;5.40;2.90;;;;;;;14.61;81.03;99680.47;2223692;40;20444;-80
2021/07/01 00:44:48;;;;;;;4.88;3.28;;;;;;;14.57;80.81;99684.53;2219614;40;20029;-81
2021/07/01 00:46:20;;;;;;;8.30;3.65;;;;;;;14.58;80.83;99683.53;2219701;40;20040;-81
2021/07/01 00:47:52;;;;;;;8.40;3.90;;;;;;;14.61;80.86;99685.84;2220727;40;20041;-81
2021/07/01 00:49:26;;;;;;;6.78;3.38;;;;;;;14.64;80.85;99680.94;2221201;40;20030;-82
2021/07/01 00:50:58;;;;;;;6.80;3.40;;;;;;;14.59;80.87;99683.34;2219785;40;20057;-82
2021/07/01 00:52:31;;;;;;;5.10;3.38;;;;;;;14.59;80.56;99677.13;2219903;40;20045;-82
2021/07/01 00:54:04;;;;;;;5.93;3.60;;;;;;;14.58;80.60;99684.38;2218272;40;20034;-81
2021/07/01 00:55:36;;;;;;;5.22;3.47;;;;;;;14.58;80.59;99684.38;2217767;40;20030;-80
2021/07/01 00:57:07;;;;;;;5.13;3.20;;;;;;;14.58;80.59;99675.44;2218551;40;20029;-80
2021/07/01 00:58:38;;;;;;;4.55;2.95;;;;;;;14.53;80.67;99680.53;2219131;40;20040;-81
2021/07/01 01:02:02;;;;;;;4.88;3.20;;;;;;;14.51;80.63;99683.41;2217704;40;20430;-81
2021/07/01 01:03:36;;;;;;;5.40;3.03;;;;;;;14.47;80.56;99688.28;2219056;40;20038;-80
2021/07/01 01:05:08;;;;;;;8.95;3.33;;;;;;;14.47;80.49;99677.53;2218008;40;20045;-79
2021/07/01 01:06:39;;;;;;;4.97;3.40;;;;;;;14.50;80.64;99679.03;2221750;40;20041;-81
2021/07/01 01:08:10;;;;;;;5.43;3.13;;;;;;;14.54;80.65;99677.66;2217296;40;20136;-79
2021/07/01 01:09:42;;;;;;;5.43;3.05;;;;;;;14.51;80.78;99686.09;2220594;40;20053;-78
2021/07/01 01:11:15;;;;;;;6.10;2.72;;;;;;;14.50;80.64;99684.41;2221962;40;20045;-79
2021/07/01 01:12:47;;;;;;;6.15;3.17;;;;;;;14.54;80.54;99687.59;2221492;40;20026;-79
2021/07/01 01:14:18;;;;;;;6.13;3.40;;;;;;;14.54;80.64;99682.22;2217283;40;20057;-79
2021/07/01 01:15:52;;;;;;;4.93;3.05;;;;;;;14.61;80.64;99685.84;2221280;40;20402;-79
2021/07/01 01:17:24;;;;;;;4.30;2.80;;;;;;;14.63;80.38;99689.22;2223878;40;20033;-80
2021/07/01 01:18:56;;;;;;;6.72;3.47;;;;;;;14.59;80.16;99677.97;2222900;40;20036;-79
2021/07/01 01:20:27;;;;;;;4.60;2.90;;;;;;;14.59;80.37;99682.50;2223708;40;20550;-79
2021/07/01 01:22:00;;;;;;;5.75;3.38;;;;;;;14.57;80.17;99687.22;2222097;40;20056;-80
2021/07/01 01:23:32;;;;;;;4.72;3.08;;;;;;;14.56;80.19;99685.53;2217220;40;20033;-79
2021/07/01 01:25:06;;;;;;;5.65;3.28;;;;;;;14.57;80.16;99692.59;2219387;40;20126;-79
2021/07/01 01:26:38;;;;;;;6.97;3.70;;;;;;;14.56;80.35;99691.78;2217303;40;20357;-79
2021/07/01 01:28:10;;;;;;;5.65;3.17;;;;;;;14.57;80.25;99681.84;2219731;40;20044;-80
2021/07/01 01:29:44;;;;;;;6.15;3.22;;;;;;;14.59;80.01;99685.19;2218683;40;20369;-80
2021/07/01 01:31:15;;;;;;;5.57;3.15;;;;;;;14.59;79.72;99688.75;2220187;40;20041;-79
2021/07/01 01:32:47;;;;;;;4.93;2.63;;;;;;;14.59;79.84;99679.81;2218360;40;20097;-78
2021/07/01 01:34:19;;;;;;;5.38;3.00;;;;;;;14.58;80.05;99691.59;2220883;40;20048;-79
2021/07/01 01:35:50;;;;;;;8.40;3.45;;;;;;;14.62;79.91;99691.03;2217514;40;20044;-80
2021/07/01 01:37:23;;;;;;;5.72;3.13;;;;;;;14.59;79.40;99695.94;2217467;40;20048;-80
2021/07/01 01:38:55;;;;;;;7.35;3.00;;;;;;;14.61;79.61;99688.53;2220840;40;20559;-80
2021/07/01 01:40:26;;;;;;;6.20;2.65;;;;;;;14.59;79.65;99685.19;2224203;40;20041;-80
2021/07/01 01:41:58;;;;;;;7.18;3.15;;;;;;;14.57;79.77;99681.84;2222169;40;20025;-80
2021/07/01 01:43:28;;;;;;;4.80;2.75;;;;;;;14.60;79.83;99693.06;2223933;40;20036;-80
2021/07/01 01:45:00;;;;;;;6.35;2.60;;;;;;;14.62;79.74;99687.53;2223930;40;20052;-80
2021/07/01 01:46:38;;;;;;;9.30;2.97;;;;;;;14.58;79.63;99688.91;2223670;40;20033;-80
2021/07/01 01:48:10;;;;;;;5.88;2.80;;;;;;;14.58;79.58;99686.22;2220373;40;20492;-80
2021/07/01 01:49:43;;;;;;;5.65;2.60;;;;;;;14.58;79.60;99681.69;2217320;40;20034;-81
2021/07/01 01:51:15;;;;;;;5.40;2.80;;;;;;;14.59;79.66;99679.81;2219873;40;20040;-80
2021/07/01 01:52:49;;;;;;;5.90;2.75;;;;;;;14.58;79.42;99670.91;2217647;40;20040;-80
2021/07/01 01:54:21;;;;;;;5.88;2.75;;;;;;;14.56;79.41;99678.31;2219524;40;20516;-79
2021/07/01 01:55:53;;;;;;;8.02;2.90;;;;;;;14.56;79.57;99680.16;2217573;40;20022;-80
2021/07/01 01:57:27;;;;;;;5.07;2.72;;;;;;;14.53;79.35;99680.53;2219385;40;20040;-79
2021/07/01 01:58:59;;;;;;;4.25;2.90;;;;;;;14.51;79.70;99678.88;2220665;40;20045;-79
2021/07/01 02:00:31;;;;;;;4.80;2.88;;;;;;;14.49;79.63;99683.59;2220013;40;20036;-80
2021/07/01 02:02:04;;;;;;;5.88;3.15;;;;;;;14.50;79.92;99679.03;2223875;40;20049;-79
2021/07/01 02:03:34;;;;;;;7.20;3.55;;;;;;;14.56;79.96;99681.03;2223650;40;20037;-78
2021/07/01 02:05:08;;;;;;;5.25;3.10;;;;;;;14.57;79.56;99680.00;2219768;40;20043;-80
2021/07/01 02:06:40;;;;;;;5.53;3.10;;;;;;;14.56;79.43;99688.22;2222668;40;20040;-80
2021/07/01 02:08:13;;;;;;;5.38;3.00;;;;;;;14.52;79.54;99685.06;2220846;40;20041;-80
2021/07/01 02:09:44;;;;;;;5.53;2.55;;;;;;;14.51;79.57;99684.25;2224505;40;20635;-80
2021/07/01 02:11:15;;;;;;;5.05;2.90;;;;;;;14.52;79.54;99685.06;2202232;40;20031;-80
2021/07/01 02:12:48;;;;;;;3.97;2.40;;;;;;;14.49;79.62;99686.28;2211868;40;20041;-80
2021/07/01 02:14:20;;;;;;;6.53;2.90;;;;;;;14.53;79.37;99689.44;2222518;40;20030;-81
2021/07/01 02:15:50;;;;;;;5.72;3.22;;;;;;;14.48;79.46;99689.97;2225188;40;20044;-80
2021/07/01 02:17:22;;;;;;;4.82;2.90;;;;;;;14.49;79.52;99688.13;2224790;40;20047;-81
2021/07/01 02:18:54;;;;;;;4.72;3.08;;;;;;;14.50;79.97;99689.78;2223702;40;20041;-79
2021/07/01 02:20:28;;;;;;;4.60;2.95;;;;;;;14.53;79.63;99694.00;2222628;40;20067;-79
2021/07/01 02:22:00;;;;;;;8.60;3.45;;;;;;;14.54;79.43;99693.81;2224799;40;20037;-82
2021/07/01 02:23:33;;;;;;;5.80;4.03;;;;;;;14.52;79.43;99685.06;2205429;40;20399;-80
2021/07/01 02:25:06;;;;;;;6.63;3.33;;;;;;;14.53;79.37;99696.69;2224271;40;20018;-80
2021/07/01 02:26:38;;;;;;;6.25;3.50;;;;;;;14.50;79.65;99698.72;2214369;40;20398;-80
2021/07/01 02:28:10;;;;;;;6.00;3.53;;;;;;;14.48;79.78;99706.09;2217375;40;20282;-79
2021/07/01 02:29:42;;;;;;;5.10;3.42;;;;;;;14.50;79.42;99700.53;2219097;40;20033;-79
2021/07/01 02:31:12;;;;;;;8.30;4.03;;;;;;;14.50;79.42;99714.84;2212491;40;20033;-79
2021/07/01 02:32:45;;;;;;;5.05;3.30;;;;;;;14.53;79.69;99710.13;2223061;40;20033;-80
2021/07/01 02:34:17;;;;;;;5.97;4.07;;;;;;;14.53;79.68;99704.75;2218067;40;20049;-79
2021/07/01 02:35:48;;;;;;;6.68;3.90;;;;;;;14.54;79.45;99701.03;2218047;40;20052;-80
2021/07/01 02:37:20;;;;;;;6.15;3.63;;;;;;;14.56;79.34;99707.06;2220373;40;20037;-79
2021/07/01 02:38:53;;;;;;;5.05;3.30;;;;;;;14.56;79.41;99701.69;2223160;40;20064;-79
2021/07/01 02:40:26;;;;;;;8.52;3.65;;;;;;;14.55;79.34;99710.78;2221155;40;20373;-81
2021/07/01 02:41:57;;;;;;;5.57;3.80;;;;;;;14.51;79.10;99708.44;2218196;40;20278;-80
2021/07/01 02:43:28;;;;;;;6.13;3.47;;;;;;;14.49;79.49;99707.78;2218679;40;20036;-80
2021/07/01 02:45:00;;;;;;;6.43;3.40;;;;;;;14.49;79.41;99706.97;2218115;40;20033;-80
2021/07/01 02:46:33;;;;;;;5.88;3.58;;;;;;;14.52;79.49;99714.66;2223935;40;20417;-80
2021/07/01 02:48:06;;;;;;;7.28;4.00;;;;;;;14.55;79.55;99706.25;2219947;40;20029;-81
2021/07/01 02:49:37;;;;;;;5.28;3.63;;;;;;;14.56;79.60;99707.91;2223354;40;20049;-79
2021/07/01 02:51:09;;;;;;;7.05;3.80;;;;;;;14.58;79.36;99702.34;2221353;40;20037;-80
2021/07/01 02:52:41;;;;;;;5.43;3.70;;;;;;;14.55;79.16;99702.72;2218993;40;20517;-81
2021/07/01 02:54:15;;;;;;;5.35;3.60;;;;;;;14.51;79.00;99703.06;2217778;40;20025;-80
2021/07/01 02:55:47;;;;;;;5.75;4.25;;;;;;;14.51;79.46;99697.69;2221307;40;20360;-80
2021/07/01 02:57:19;;;;;;;6.20;3.50;;;;;;;14.53;79.20;99710.13;2224840;40;20033;-81
2021/07/01 02:58:51;;;;;;;6.15;3.75;;;;;;;14.52;79.31;99701.22;2226890;40;20464;-82
2021/07/01 03:00:23;;;;;;;5.40;3.53;;;;;;;14.51;79.24;99700.38;2226170;40;20036;-81
2021/07/01 03:01:55;;;;;;;9.95;3.92;;;;;;;14.52;79.14;99701.22;2226423;40;20029;-81
2021/07/01 03:03:26;;;;;;;5.70;3.70;;;;;;;14.51;79.23;99703.06;2219374;40;20042;-80
2021/07/01 03:04:58;;;;;;;6.13;4.07;;;;;;;14.51;79.31;99705.75;2223370;40;20021;-83
2021/07/01 03:06:30;;;;;;;6.68;4.10;;;;;;;14.52;79.09;99709.28;2226259;40;20449;-81
2021/07/01 03:08:02;;;;;;;6.38;4.05;;;;;;;14.56;79.25;99713.28;2224456;40;20036;-80
2021/07/01 03:09:35;;;;;;;6.57;3.53;;;;;;;14.61;78.99;99707.38;2223578;40;20039;-81
2021/07/01 03:11:07;;;;;;;7.20;4.32;;;;;;;14.59;78.71;99712.09;2224446;40;20029;-79
2021/07/01 03:12:38;;;;;;;6.05;3.30;;;;;;;14.58;78.79;99705.03;2221077;40;20494;-80
2021/07/01 03:14:10;;;;;;;6.70;3.83;;;;;;;14.61;78.79;99712.75;2218049;40;20074;-80
2021/07/01 03:15:42;;;;;;;7.03;4.25;;;;;;;14.59;78.75;99709.41;2219649;40;20401;-80
2021/07/01 03:17:13;;;;;;;6.82;3.53;;;;;;;14.59;78.74;99704.03;2218064;40;20049;-81
2021/07/01 03:18:45;;;;;;;6.18;4.10;;;;;;;14.59;78.78;99706.72;2217837;40;20338;-80
2021/07/01 03:20:17;;;;;;;5.93;3.50;;;;;;;14.58;78.81;99705.03;2214222;40;20042;-79
2021/07/01 03:21:48;;;;;;;5.13;3.50;;;;;;;14.57;78.86;99700.66;2208791;40;20040;-80
2021/07/01 03:23:20;;;;;;;7.20;4.13;;;;;;;14.58;78.67;99702.34;2217715;40;20101;-80
2021/07/01 03:24:52;;;;;;;6.50;4.18;;;;;;;14.59;78.80;99709.41;2218705;40;20041;-80
2021/07/01 03:26:24;;;;;;;5.97;4.25;;;;;;;14.56;78.86;99704.38;2219304;40;20046;-80
2021/07/01 03:27:56;;;;;;;8.75;4.60;;;;;;;14.55;78.80;99700.03;2218914;40;20053;-80
2021/07/01 03:29:28;;;;;;;6.20;3.65;;;;;;;14.53;78.82;99707.44;2225421;40;20591;-80
2021/07/01 03:31:00;;;;;;;6.97;3.80;;;;;;;14.54;78.93;99711.81;2225356;40;20064;-80
2021/07/01 03:32:32;;;;;;;7.35;4.05;;;;;;;14.54;78.85;99707.25;2224295;40;20390;-81
2021/07/01 03:34:04;;;;;;;6.18;4.47;;;;;;;14.56;79.07;99712.44;2226173;40;20049;-81
2021/07/01 03:35:35;;;;;;;6.75;4.57;;;;;;;14.54;78.68;99704.56;2226195;40;20049;-80
2021/07/01 03:37:08;;;;;;;9.25;5.70;;;;;;;14.56;78.85;99704.38;2226185;40;20041;-81
2021/07/01 03:38:40;;;;;;;6.85;4.22;;;;;;;14.55;78.77;99705.41;2225632;40;20025;-82
2021/07/01 03:40:14;;;;;;;6.10;4.72;;;;;;;14.58;78.84;99711.28;2227761;40;20030;-82
2021/07/01 03:41:52;;;;;;;7.57;4.60;;;;;;;14.59;78.56;99718.31;2227491;40;20017;-82
2021/07/01 03:43:24;;;;;;;7.32;4.30;;;;;;;14.59;78.93;99715.63;2224942;40;20032;-82
2021/07/01 03:44:57;;;;;;;6.35;4.82;;;;;;;14.62;78.86;99700.97;2222030;40;20048;-81
2021/07/01 03:46:31;;;;;;;5.68;4.10;;;;;;;14.63;78.86;99713.41;2226484;40;20036;-81
2021/07/01 03:48:04;;;;;;;7.82;4.50;;;;;;;14.66;78.91;99718.41;2229341;40;20037;-82
2021/07/01 03:49:40;;;;;;;8.05;4.18;;;;;;;14.61;78.59;99710.88;2229636;40;20025;-81
2021/07/01 03:51:23;;;;;;;7.03;4.43;;;;;;;14.64;78.61;99717.78;2210868;40;20041;-81
2021/07/01 03:52:55;;;;;;;7.88;4.15;;;;;;;14.55;78.53;99705.41;2204296;40;20026;-80
2021/07/01 03:54:27;;;;;;;7.00;4.55;;;;;;;14.64;78.45;99715.91;2204315;40;20081;-81
2021/07/01 03:56:01;;;;;;;7.57;4.97;;;;;;;14.63;78.48;99710.72;2192117;40;20121;-81
2021/07/01 03:57:32;;;;;;;6.32;4.35;;;;;;;14.69;78.43;99711.91;2185182;40;20032;-82
2021/07/01 03:59:03;;;;;;;9.35;4.30;;;;;;;14.64;78.44;99713.22;2190122;40;20028;-80
2021/07/01 04:00:36;;;;;;;6.30;4.35;;;;;;;14.69;78.45;99718.09;2192413;40;20069;-81
2021/07/01 04:02:07;;;;;;;7.03;3.78;;;;;;;14.67;78.45;99717.44;2192368;40;20036;-81
2021/07/01 04:03:49;;;;;;;7.18;4.13;;;;;;;14.72;78.31;99717.75;2200481;40;20031;-80
2021/07/01 04:05:27;;;;;;;6.30;4.10;;;;;;;14.80;78.08;99722.22;2210187;40;20038;-83
2021/07/01 04:07:00;;;;;;;5.97;3.42;;;;;;;14.77;78.11;99714.53;2192070;40;20028;-80
2021/07/01 04:12:33;;;;;;;6.90;3.83;;;;;;;14.76;78.10;99729.81;2227657;40;20033;-83
2021/07/01 04:21:27;;;;;;;5.05;3.80;;;;;;;14.72;78.35;99744.66;2227825;40;20036;-81
2021/07/01 04:22:59;;;;;;;4.95;3.28;;;;;;;14.68;78.43;99737.94;2228195;40;20113;-81
2021/07/01 04:24:31;;;;;;;6.88;3.92;;;;;;;14.71;78.53;99734.91;2228860;40;20017;-81
2021/07/01 04:26:01;;;;;;;5.50;3.70;;;;;;;14.71;78.65;99742.97;2227887;40;20044;-79
2021/07/01 04:27:36;;;;;;;7.35;4.53;;;;;;;14.69;78.29;99736.94;2228623;40;20025;-81
2021/07/01 04:29:29;;;;;;;6.22;3.63;;;;;;;14.68;78.53;99739.81;2229407;40;20032;-82
2021/07/01 04:33:05;;;;;;;6.15;3.70;;;;;;;14.63;78.75;99741.16;2207710;40;20357;-81
2021/07/01 04:34:37;;;;;;;6.40;4.10;;;;;;;14.66;78.66;99738.13;2207908;40;20045;-81
2021/07/01 04:36:09;;;;;;;5.53;3.58;;;;;;;14.68;78.79;99743.34;2227885;40;20020;-81
2021/07/01 04:37:42;;;;;;;6.55;3.67;;;;;;;14.71;78.80;99732.22;2220787;40;20029;-82
2021/07/01 04:39:13;;;;;;;5.55;3.55;;;;;;;14.80;78.41;99738.34;2220376;40;20036;-82
2021/07/01 04:40:45;;;;;;;7.45;3.70;;;;;;;14.78;78.44;99732.34;2222373;40;20052;-82
2021/07/01 04:42:17;;;;;;;4.80;3.13;;;;;;;14.83;78.38;99738.00;2228294;40;20048;-82
2021/07/01 04:43:54;;;;;;;4.45;3.28;;;;;;;14.82;78.25;99739.03;2227576;40;20029;-82
2021/07/01 04:45:26;;;;;;;8.30;3.63;;;;;;;14.77;78.70;99731.50;2228034;40;20033;-81
2021/07/01 04:47:22;;;;;;;4.13;2.92;;;;;;;14.76;78.73;99734.38;2216546;40;20247;-82
2021/07/01 04:48:55;;;;;;;5.65;3.53;;;;;;;14.77;78.92;99736.88;2222182;40;20079;-82
2021/07/01 04:50:26;;;;;;;6.15;3.63;;;;;;;14.82;78.88;99733.63;2210682;40;20042;-81
2021/07/01 04:51:58;;;;;;;10.77;3.65;;;;;;;14.80;78.93;99731.16;2210655;40;20030;-83
2021/07/01 04:53:40;;;;;;;5.88;3.15;;;;;;;14.76;78.92;99729.00;2209377;40;20038;-82
2021/07/01 04:55:14;;;;;;;7.47;3.60;;;;;;;14.73;79.06;99732.88;2207819;40;20031;-83
2021/07/01 04:56:46;;;;;;;4.13;2.70;;;;;;;14.77;79.07;99739.56;2222078;40;20026;-81
2021/07/01 04:59:13;;;;;;;6.10;3.63;;;;;;;14.72;78.84;99733.03;2223818;40;20035;-82
2021/07/01 05:03:49;;;;;;;4.43;2.90;;;;;;;14.77;79.13;99736.88;2197024;40;20047;-82
2021/07/01 05:05:21;;;;;;;4.88;3.03;;;;;;;14.78;78.97;99732.34;2206255;40;20049;-81
2021/07/01 05:06:55;;;;;;;7.68;3.20;;;;;;;14.73;78.67;99735.56;2208386;40;20035;-81
2021/07/01 05:08:27;;;;;;;6.75;3.42;;;;;;;14.74;78.95;99739.91;2217212;40;20041;-81
2021/07/01 05:09:58;;;;;;;5.93;3.63;;;;;;;14.81;78.75;99746.28;2230418;40;20028;-81
2021/07/01 05:11:37;;;;;;;5.45;3.42;;;;;;;14.84;78.39;99738.84;2234461;39;20049;-84
2021/07/01 05:13:13;;;;;;;6.15;2.95;;;;;;;14.85;78.47;99735.13;2235816;39;20024;-82
2021/07/01 05:14:49;;;;;;;5.20;3.50;;;;;;;14.85;78.70;99741.38;2234893;39;20078;-82
2021/07/01 05:16:20;;;;;;;6.28;2.75;;;;;;;14.90;78.56;99735.44;2235107;40;20037;-81
2021/07/01 05:17:59;;;;;;;5.20;3.50;;;;;;;14.94;78.34;99742.13;2235342;39;20037;-85
2021/07/01 05:19:51;;;;;;;6.28;3.10;;;;;;;14.96;78.30;99740.09;2234343;40;20039;-81
2021/07/01 05:21:39;;;;;;;5.47;3.25;;;;;;;14.95;78.03;99752.72;2231943;40;20029;-80
2021/07/01 05:23:57;;;;;;;6.78;4.15;;;;;;;14.91;77.92;99745.19;2229702;40;20031;-83
2021/07/01 05:25:30;;;;;;;7.13;3.47;;;;;;;14.97;78.00;99741.75;2216624;40;20038;-81
2021/07/01 05:27:03;;;;;;;6.22;3.47;;;;;;;14.96;77.98;99750.84;2216357;40;20045;-80
2021/07/01 05:28:35;;;;;;;4.97;3.20;;;;;;;14.96;78.06;99753.53;2213608;40;20481;-80
2021/07/01 05:30:07;;;;;;;6.93;3.33;;;;;;;14.97;78.07;99752.53;2213859;40;20041;-80
2021/07/01 05:31:40;;;;;;;5.07;3.78;;;;;;;14.98;78.04;99746.97;2215809;40;20033;-82
2021/07/01 05:33:36;;;;;;;6.05;3.13;;;;;;;15.05;77.81;99749.78;2217238;40;20026;-82
2021/07/01 05:36:03;;;;;;;5.28;3.60;;;;;;;15.06;77.61;99750.63;2217107;40;20038;-82
2021/07/01 05:37:54;;;;;;;8.90;5.80;;;;;;;15.10;77.23;99752.78;2217264;40;20030;-82
2021/07/01 05:43:07;;;;;;;4.30;2.80;;;;;;;15.00;77.60;99748.63;2215948;40;20022;-80
2021/07/01 05:44:42;;;;;;;4.13;2.60;;;;;;;15.04;77.55;99755.34;2220745;40;20057;-81
2021/07/01 05:46:14;;;;;;;6.50;2.60;;;;;;;14.98;77.66;99754.22;2221511;40;20029;-81
2021/07/01 05:47:46;;;;;;;7.22;3.15;;;;;;;15.00;77.67;99754.88;2222027;40;20288;-81
2021/07/01 05:49:27;;;;;;;5.13;3.03;;;;;;;15.07;77.72;99755.81;2222213;40;20025;-82
2021/07/01 05:51:08;;;;;;;6.28;2.70;;;;;;;15.07;77.83;99753.13;2216526;40;20030;-80
2021/07/01 05:52:41;;;;;;;8.25;3.25;;;;;;;15.08;77.56;99754.81;2216635;40;20041;-81
2021/07/01 05:56:05;;;;;;;4.70;2.30;;;;;;;15.08;77.51;99757.50;2222854;40;20037;-82
2021/07/01 05:57:37;;;;;;;5.13;2.40;;;;;;;15.09;77.31;99756.47;2223315;40;20040;-81
2021/07/01 05:59:36;;;;;;;3.92;2.10;;;;;;;15.11;76.89;99758.97;2223137;40;20026;-82
2021/07/01 06:03:06;;;;;;;4.00;2.20;;;;;;;15.09;77.07;99759.16;2222213;40;20050;-80
2021/07/01 06:05:26;;;;;;;5.78;2.35;;;;;;;15.13;76.93;99756.94;2223332;40;20038;-81
2021/07/01 06:07:23;;;;;;;5.30;2.03;;;;;;;15.09;76.95;99763.69;2223258;40;20046;-83
2021/07/01 06:09:21;;;;;;;4.22;2.53;;;;;;;15.21;76.81;99764.13;2222868;40;20018;-82
2021/07/01 06:11:10;;;;;;;5.30;2.63;;;;;;;15.17;76.71;99765.50;2218415;40;20062;-83
2021/07/01 06:13:06;;;;;;;4.95;2.50;;;;;;;15.18;77.02;99773.38;2222411;40;20087;-80
2021/07/01 06:14:38;;;;;;;4.00;2.20;;;;;;;15.17;76.97;99773.56;2221947;40;20064;-80
2021/07/01 06:16:11;;;;;;;4.72;2.60;;;;;;;15.12;76.84;99782.19;2219892;40;20099;-80
2021/07/01 06:17:44;;;;;;;3.70;2.30;;;;;;;15.09;77.09;99769.94;2219888;40;20075;-81
2021/07/01 06:19:18;;;;;;;4.32;2.60;;;;;;;15.13;76.93;99771.22;2222914;40;20046;-82
2021/07/01 06:20:56;;;;;;;5.85;2.42;;;;;;;15.07;76.85;99773.81;2223286;40;20025;-82
2021/07/01 06:22:29;;;;;;;4.85;2.60;;;;;;;15.06;77.50;99775.66;2224139;40;20090;-82
2021/07/01 06:24:14;;;;;;;4.15;2.60;;;;;;;15.14;77.10;99774.78;2210259;40;20038;-82
2021/07/01 06:26:06;;;;;;;7.22;2.83;;;;;;;15.12;77.23;99772.25;2197769;40;20039;-81
2021/07/01 06:27:37;;;;;;;5.00;2.85;;;;;;;15.08;77.42;99775.47;2202687;40;20048;-80
2021/07/01 06:29:20;;;;;;;6.07;2.88;;;;;;;14.97;77.62;99774.06;2203293;40;20089;-82
2021/07/01 06:30:52;;;;;;;4.50;2.53;;;;;;;14.95;77.82;99778.78;2202372;40;20035;-82
2021/07/01 06:32:34;;;;;;;13.48;3.03;;;;;;;14.96;77.97;99778.63;2213622;40;20046;-82
2021/07/01 06:34:06;;;;;;;6.47;3.95;;;;;;;14.95;77.99;99787.72;2221346;40;20048;-83
2021/07/01 06:35:39;;;;;;;7.32;4.25;;;;;;;14.95;78.22;99782.34;2219737;40;20057;-81
2021/07/01 06:37:12;;;;;;;6.15;3.45;;;;;;;15.01;78.12;99780.78;2221545;40;20457;-82
2021/07/01 06:38:47;;;;;;;4.65;2.78;;;;;;;14.98;78.15;99781.94;2227110;40;20044;-81
2021/07/01 06:40:18;;;;;;;5.07;2.50;;;;;;;14.96;78.28;99785.84;2220654;40;20092;-81
2021/07/01 06:41:54;;;;;;;4.97;2.85;;;;;;;15.02;78.35;99781.59;2221622;40;20030;-81
2021/07/01 06:43:27;;;;;;;4.72;2.50;;;;;;;15.02;78.65;99777.03;2220695;40;20037;-82
2021/07/01 06:45:00;;;;;;;4.82;2.67;;;;;;;14.98;78.64;99775.75;2220845;40;20045;-81
2021/07/01 06:46:33;;;;;;;7.63;3.20;;;;;;;14.94;78.43;99786.03;2225525;40;20347;-80
2021/07/01 06:48:56;;;;;;;5.47;2.55;;;;;;;14.96;78.82;99781.31;2235018;39;20024;-80
2021/07/01 06:50:42;;;;;;;5.80;2.80;;;;;;;14.88;79.22;99775.97;2216084;40;20083;-81
2021/07/01 06:52:23;;;;;;;6.55;2.90;;;;;;;14.85;79.54;99787.13;2228574;40;20076;-83
2021/07/01 06:53:56;;;;;;;5.47;2.60;;;;;;;14.81;79.90;99796.53;2224050;40;20044;-81
2021/07/01 06:55:28;;;;;;;6.78;3.38;;;;;;;14.82;80.14;99793.69;2229457;40;20033;-81
2021/07/01 06:57:01;;;;;;;5.20;2.58;;;;;;;14.82;80.62;99790.16;2224648;40;20040;-80
2021/07/01 06:58:33;;;;;;;7.63;2.60;;;;;;;14.81;80.19;99808.16;2224909;40;20039;-81
2021/07/01 07:00:06;;;;;;;4.75;2.42;;;;;;;14.83;79.98;99794.53;2218862;40;20044;-81
2021/07/01 07:01:39;;;;;;;5.32;2.40;;;;;;;14.87;80.00;99801.22;2218678;40;20148;-80
2021/07/01 07:03:17;;;;;;;5.07;2.08;;;;;;;14.94;79.89;99806.72;2218892;40;20034;-81
2021/07/01 07:04:48;;;;;;;5.63;2.63;;;;;;;14.99;79.59;99801.66;2220463;40;20038;-81
2021/07/01 07:06:20;;;;;;;5.65;2.25;;;;;;;15.02;79.44;99803.97;2220511;40;20056;-82
2021/07/01 07:07:54;;;;;;;7.40;2.50;;;;;;;15.03;78.75;99804.81;2220521;40;20030;-81
2021/07/01 07:09:26;;;;;;;6.15;2.40;;;;;;;15.03;78.81;99800.25;2220279;40;20049;-81
2021/07/01 07:10:59;;;;;;;8.85;2.90;;;;;;;15.08;78.81;99792.50;2219096;40;20033;-79
2021/07/01 07:12:40;;;;;;;8.77;2.58;;;;;;;15.12;78.61;99798.34;2222572;40;20348;-80
2021/07/01 07:14:13;;;;;;;6.30;2.75;;;;;;;15.13;78.57;99800.84;2230831;40;20044;-80
2021/07/01 07:15:47;;;;;;;5.75;2.55;;;;;;;15.21;78.45;99794.56;2228671;40;20317;-81
2021/07/01 07:17:17;;;;;;;7.22;2.17;;;;;;;15.23;78.05;99800.63;2225785;40;20310;-80
2021/07/01 07:18:52;;;;;;;7.45;2.85;;;;;;;15.27;77.75;99791.13;2225024;40;20049;-80
2021/07/01 07:24:41;;;;;;;6.72;2.95;;;;;;;15.20;76.83;99805.53;2168076;41;20056;-82
2021/07/01 07:28:54;;;;;;;4.45;2.47;;;;;;;15.35;76.54;99808.25;2157460;41;20717;-82
2021/07/01 07:30:27;;;;;;;6.53;2.58;;;;;;;15.41;76.21;99802.16;2165003;41;20042;-82
2021/07/01 07:32:03;;;;;;;8.32;3.00;;;;;;;15.43;76.15;99800.94;2168474;41;20049;-81
2021/07/01 07:33:35;;;;;;;8.18;3.42;;;;;;;15.46;76.30;99810.50;2169855;41;20049;-81
2021/07/01 07:35:09;;;;;;;6.82;2.85;;;;;;;15.44;76.05;99813.38;2169386;41;20041;-80
2021/07/01 07:36:40;;;;;;;5.05;2.63;;;;;;;15.43;76.07;99800.09;2170113;41;20061;-81
2021/07/01 07:38:12;;;;;;;4.00;2.20;;;;;;;15.43;75.59;99806.31;2166073;41;20045;-80
2021/07/01 07:39:45;;;;;;;6.90;2.97;;;;;;;15.47;75.72;99805.97;2189618;40;20038;-80
2021/07/01 07:43:23;;;;;;;4.93;2.17;;;;;;;15.57;75.29;99793.06;2191519;40;20456;-82
2021/07/01 07:44:58;;;;;;;3.92;2.03;;;;;;;15.56;75.29;99788.69;2189260;40;20024;-82
2021/07/01 07:46:32;;;;;;;5.97;2.70;;;;;;;15.60;74.99;99792.69;2189028;40;20054;-82
2021/07/01 07:48:04;;;;;;;4.88;2.78;;;;;;;15.61;74.97;99797.06;2190562;40;20056;-80
2021/07/01 07:49:37;;;;;;;4.10;2.30;;;;;;;15.60;74.51;99788.16;2190573;40;20032;-82
2021/07/01 07:51:11;;;;;;;5.20;2.28;;;;;;;15.63;74.38;99796.91;2191403;40;20032;-82
2021/07/01 07:52:46;;;;;;;3.85;2.20;;;;;;;15.65;74.40;99792.13;2213575;40;20030;-82
2021/07/01 07:54:23;;;;;;;6.05;2.47;;;;;;;15.68;74.40;99803.38;2215164;40;20100;-81
2021/07/01 07:56:02;;;;;;;4.20;2.35;;;;;;;15.73;74.18;99805.50;2218564;40;20571;-81
2021/07/01 07:57:33;;;;;;;4.75;2.28;;;;;;;15.79;74.31;99806.63;2220350;40;20033;-82
2021/07/01 07:59:13;;;;;;;5.15;2.72;;;;;;;15.83;73.88;99794.47;2221022;40;20464;-83
2021/07/01 08:00:46;;;;;;;5.15;2.63;;;;;;;15.86;73.70;99789.59;2222112;40;20038;-81
2021/07/01 08:02:30;;;;;;;8.63;2.90;;;;;;;15.85;73.32;99796.00;2215056;40;20026;-80